createdAt,value
2022-11-15T00:00:55.993Z,1.60
2022-11-15T00:03:25.354Z,1.65
2022-11-15T00:05:52.103Z,1.98
2022-11-15T00:08:19.349Z,1.75
2022-11-15T00:11:00.308Z,0.95
2022-11-15T00:13:27.462Z,1.50
2022-11-15T00:16:01.296Z,1.35
2022-11-15T00:18:29.798Z,0.90
2022-11-15T00:20:56.830Z,1.80
2022-11-15T00:23:23.776Z,1.25
2022-11-15T00:25:57.957Z,1.00
2022-11-15T00:28:25.496Z,1.42
2022-11-15T00:30:53.028Z,1.30
2022-11-15T00:33:19.939Z,1.08
2022-11-15T00:35:46.951Z,0.93
2022-11-15T00:38:13.657Z,1.65
2022-11-15T00:40:40.435Z,1.30
2022-11-15T00:43:07.146Z,1.42
2022-11-15T00:45:33.805Z,1.85
2022-11-15T00:48:00.482Z,1.05
2022-11-15T00:50:27.502Z,1.65
2022-11-15T00:52:54.108Z,0.93
2022-11-15T00:55:21.441Z,1.67
2022-11-15T00:57:48.334Z,1.30
2022-11-15T01:00:17.995Z,1.20
2022-11-15T01:02:44.728Z,0.80
2022-11-15T01:05:11.355Z,1.35
2022-11-15T01:07:38.151Z,1.50
2022-11-15T01:10:05.695Z,1.88
2022-11-15T01:12:33.031Z,1.45
2022-11-15T01:14:59.823Z,1.10
2022-11-15T01:17:26.897Z,1.50
2022-11-15T01:19:53.665Z,0.98
2022-11-15T01:22:20.356Z,1.77
2022-11-15T01:24:47.034Z,1.30
2022-11-15T01:27:13.638Z,1.88
2022-11-15T01:29:40.340Z,1.35
2022-11-15T01:32:06.975Z,0.98
2022-11-15T01:34:33.658Z,1.08
2022-11-15T01:37:00.277Z,1.30
2022-11-15T01:39:27.628Z,1.80
2022-11-15T01:41:54.597Z,1.55
2022-11-15T01:44:39.949Z,1.58
2022-11-15T01:47:35.873Z,1.77
2022-11-15T01:50:09.434Z,1.08
2022-11-15T01:52:37.066Z,0.93
2022-11-15T01:55:08.696Z,1.08
2022-11-15T01:57:35.814Z,1.20
2022-11-15T02:00:05.287Z,1.55
2022-11-15T02:02:33.506Z,1.17
2022-11-15T02:05:03.606Z,1.20
2022-11-15T02:07:32.069Z,1.10
2022-11-15T02:10:15.036Z,0.95
2022-11-15T02:12:42.615Z,1.00
2022-11-15T02:15:10.411Z,1.10
2022-11-15T02:17:55.931Z,0.80
2022-11-15T02:20:44.565Z,2.00
2022-11-15T02:23:29.500Z,1.30
2022-11-15T02:26:11.298Z,1.45
2022-11-15T02:28:56.785Z,0.80
2022-11-15T02:31:34.994Z,3.72
2022-11-15T02:34:12.724Z,0.88
2022-11-15T02:36:56.018Z,1.00
2022-11-15T02:39:47.619Z,1.25
2022-11-15T02:42:41.432Z,1.58
2022-11-15T02:45:12.566Z,0.90
2022-11-15T02:47:45.348Z,1.40
2022-11-15T02:50:16.078Z,1.52
2022-11-15T02:52:46.625Z,1.58
2022-11-15T02:55:34.015Z,1.00
2022-11-15T03:00:36.864Z,1.17
2022-11-15T03:03:17.294Z,1.30
2022-11-15T03:05:57.982Z,1.20
2022-11-15T03:08:32.565Z,1.25
2022-11-15T03:11:05.256Z,1.13
2022-11-15T03:13:59.224Z,1.13
2022-11-15T03:16:33.002Z,1.25
2022-11-15T03:19:43.586Z,1.08
2022-11-15T03:22:13.505Z,2.13
2022-11-15T03:24:42.068Z,0.98
2022-11-15T03:27:13.257Z,1.05
2022-11-15T03:29:46.594Z,1.60
2022-11-15T03:32:26.875Z,1.63
2022-11-15T03:34:59.621Z,1.55
2022-11-15T03:37:38.047Z,1.42
2022-11-15T03:40:06.085Z,1.13
2022-11-15T03:43:13.898Z,1.40
2022-11-15T03:45:55.702Z,1.17
2022-11-15T03:48:29.038Z,1.23
2022-11-15T03:50:56.674Z,1.25
2022-11-15T03:53:23.405Z,1.48
2022-11-15T03:55:50.105Z,1.17
2022-11-15T03:58:16.762Z,1.20
2022-11-15T04:00:44.114Z,0.95
2022-11-15T04:03:10.905Z,1.85
2022-11-15T04:05:37.540Z,1.17
2022-11-15T04:08:04.398Z,1.27
2022-11-15T04:10:31.038Z,1.98
2022-11-15T04:12:57.667Z,1.27
2022-11-15T04:15:24.960Z,1.17
2022-11-15T04:17:54.395Z,1.38
2022-11-15T04:20:42.517Z,1.10
2022-11-15T04:23:45.661Z,1.67
2022-11-15T04:26:17.511Z,1.98
2022-11-15T04:29:02.955Z,1.98
2022-11-15T04:31:30.998Z,1.33
2022-11-15T04:33:57.803Z,1.48
2022-11-15T04:36:43.427Z,1.55
2022-11-15T04:39:10.147Z,1.60
2022-11-15T04:41:36.776Z,1.42
2022-11-15T04:44:03.487Z,2.15
2022-11-15T04:46:30.121Z,2.20
2022-11-15T04:48:58.958Z,1.73
2022-11-15T04:51:26.192Z,1.77
2022-11-15T04:53:52.869Z,1.55
2022-11-15T04:56:19.695Z,1.73
2022-11-15T04:58:46.569Z,1.63
2022-11-15T05:01:15.784Z,1.40
2022-11-15T05:04:01.996Z,1.45
2022-11-15T05:06:29.130Z,2.28
2022-11-15T05:08:56.175Z,1.45
2022-11-15T05:11:23.449Z,1.73
2022-11-15T05:13:50.122Z,1.65
2022-11-15T05:16:17.291Z,2.25
2022-11-15T05:18:44.605Z,1.58
2022-11-15T05:21:14.125Z,1.80
2022-11-15T05:23:41.340Z,1.65
2022-11-15T05:26:09.501Z,1.52
2022-11-15T05:28:37.553Z,1.50
2022-11-15T05:31:06.394Z,1.70
2022-11-15T05:33:34.519Z,1.80
2022-11-15T05:36:23.195Z,1.70
2022-11-15T05:38:50.835Z,1.52
2022-11-15T05:41:22.040Z,1.55
2022-11-15T05:43:50.509Z,2.20
2022-11-15T05:46:18.509Z,1.73
2022-11-15T05:48:49.181Z,1.67
2022-11-15T05:51:17.055Z,1.20
2022-11-15T05:53:45.653Z,1.67
2022-11-15T05:56:13.550Z,1.35
2022-11-15T05:58:40.268Z,1.50
2022-11-15T06:01:07.152Z,1.10
2022-11-15T06:03:33.991Z,1.40
2022-11-15T06:06:00.934Z,1.30
2022-11-15T06:08:28.432Z,1.20
2022-11-15T06:10:55.141Z,1.52
2022-11-15T06:13:21.810Z,0.88
2022-11-15T06:15:49.132Z,1.20
2022-11-15T06:18:16.279Z,2.05
2022-11-15T06:20:43.061Z,1.10
2022-11-15T06:23:09.730Z,0.80
2022-11-15T06:25:36.324Z,0.90
2022-11-15T06:28:02.990Z,0.95
2022-11-15T06:30:30.138Z,1.30
2022-11-15T06:33:01.897Z,1.15
2022-11-15T06:35:29.181Z,1.08
2022-11-15T06:37:56.318Z,1.00
2022-11-15T06:40:23.242Z,1.02
2022-11-15T06:42:50.018Z,0.80
2022-11-15T06:45:17.246Z,0.82
2022-11-15T06:47:47.922Z,0.85
2022-11-15T06:50:15.159Z,0.80
2022-11-15T06:52:41.787Z,0.93
2022-11-15T06:55:09.166Z,1.05
2022-11-15T06:57:36.872Z,0.70
2022-11-15T07:00:07.220Z,0.60
2022-11-15T07:02:33.861Z,0.63
2022-11-15T07:05:00.586Z,0.70
2022-11-15T07:07:27.362Z,0.93
2022-11-15T07:09:54.213Z,0.52
2022-11-15T07:12:20.870Z,0.60
2022-11-15T07:14:47.649Z,0.70
2022-11-15T07:17:14.261Z,0.50
2022-11-15T07:19:41.563Z,0.70
2022-11-15T07:22:08.199Z,0.80
2022-11-15T07:24:34.867Z,0.43
2022-11-15T07:27:01.591Z,0.50
2022-11-15T07:29:28.449Z,0.38
2022-11-15T07:31:55.386Z,0.40
2022-11-15T07:34:22.064Z,0.35
2022-11-15T07:36:49.088Z,0.50
2022-11-15T07:39:15.819Z,0.45
2022-11-15T07:41:42.584Z,0.70
2022-11-15T07:44:09.223Z,0.70
2022-11-15T07:46:37.260Z,0.45
2022-11-15T07:49:03.965Z,0.50
2022-11-15T07:51:30.636Z,0.40
2022-11-15T07:53:57.407Z,0.57
2022-11-15T07:56:24.141Z,0.52
2022-11-15T07:58:51.514Z,0.52
2022-11-15T08:01:18.261Z,0.40
2022-11-15T08:03:44.917Z,0.40
2022-11-15T08:06:11.627Z,0.43
2022-11-15T08:08:38.314Z,0.70
2022-11-15T08:11:05.045Z,0.60
2022-11-15T08:13:31.966Z,0.45
2022-11-15T08:16:00.560Z,0.40
2022-11-15T08:18:27.505Z,0.50
2022-11-15T08:21:18.310Z,0.40
2022-11-15T08:23:45.381Z,0.55
2022-11-15T08:26:12.235Z,0.70
2022-11-15T08:28:40.363Z,0.57
2022-11-15T08:31:17.873Z,0.50
2022-11-15T08:33:44.996Z,0.38
2022-11-15T08:36:15.508Z,0.60
2022-11-15T08:38:42.575Z,0.57
2022-11-15T08:41:24.492Z,0.60
2022-11-15T08:43:51.166Z,0.40
2022-11-15T08:46:19.270Z,0.60
2022-11-15T08:48:46.363Z,0.45
2022-11-15T08:51:13.580Z,0.40
2022-11-15T08:53:41.212Z,0.40
2022-11-15T08:56:12.435Z,0.32
2022-11-15T08:58:39.671Z,0.55
2022-11-15T09:01:07.510Z,0.40
2022-11-15T09:03:34.310Z,0.77
2022-11-15T09:06:02.492Z,0.40
2022-11-15T09:08:47.123Z,0.60
2022-11-15T09:11:15.688Z,0.38
2022-11-15T09:13:43.505Z,0.25
2022-11-15T09:16:10.465Z,0.40
2022-11-15T09:18:37.056Z,0.30
2022-11-15T09:21:03.927Z,0.60
2022-11-15T09:23:32.613Z,0.50
2022-11-15T09:26:04.017Z,0.30
2022-11-15T09:28:33.190Z,0.20
2022-11-15T09:31:02.091Z,0.20
2022-11-15T09:33:30.016Z,0.30
2022-11-15T09:36:15.399Z,0.40
2022-11-15T09:38:42.069Z,0.30
2022-11-15T09:41:29.247Z,0.20
2022-11-15T09:44:34.727Z,0.40
2022-11-15T09:47:16.195Z,0.40
2022-11-15T09:49:43.066Z,0.40
2022-11-15T09:52:12.309Z,0.30
2022-11-15T09:54:59.469Z,0.30
2022-11-15T09:57:52.525Z,0.30
2022-11-15T10:00:49.863Z,0.30
2022-11-15T10:03:31.893Z,0.35
2022-11-15T10:06:04.707Z,0.50
2022-11-15T10:08:43.901Z,0.30
2022-11-15T10:11:36.807Z,0.47
2022-11-15T10:14:09.773Z,0.28
2022-11-15T10:16:57.411Z,0.47
2022-11-15T10:19:36.128Z,0.38
2022-11-15T10:22:02.849Z,0.30
2022-11-15T10:24:40.860Z,0.28
2022-11-15T10:27:17.689Z,0.40
2022-11-15T10:29:49.770Z,0.50
2022-11-15T10:32:19.549Z,0.20
2022-11-15T10:34:46.837Z,0.40
2022-11-15T10:37:15.048Z,0.20
2022-11-15T10:39:41.720Z,0.60
2022-11-15T10:42:29.370Z,0.17
2022-11-15T10:44:56.367Z,0.50
2022-11-15T10:47:38.906Z,0.30
2022-11-15T10:50:27.027Z,0.28
2022-11-15T10:57:54.835Z,0.20
2022-11-15T11:00:21.506Z,0.10
2022-11-15T11:02:57.345Z,0.40
2022-11-15T11:05:39.960Z,0.30
2022-11-15T11:08:14.275Z,0.40
2022-11-15T11:10:58.612Z,0.50
2022-11-15T11:16:02.592Z,0.30
2022-11-15T11:18:40.992Z,0.38
2022-11-15T11:21:15.067Z,0.40
2022-11-15T11:23:59.488Z,0.40
2022-11-15T11:27:03.371Z,0.52
2022-11-15T11:29:57.580Z,0.30
2022-11-15T11:32:58.308Z,0.30
2022-11-15T11:35:42.584Z,0.30
2022-11-15T11:38:28.167Z,0.40
2022-11-15T11:41:18.558Z,0.30
2022-11-15T11:43:57.158Z,0.30
2022-11-15T11:46:29.737Z,0.38
2022-11-15T11:49:23.607Z,0.20
2022-11-15T11:52:02.888Z,0.20
2022-11-15T11:54:48.239Z,0.43
2022-11-15T11:57:34.040Z,0.30
2022-11-15T12:00:29.449Z,0.30
2022-11-15T12:03:18.322Z,0.30
2022-11-15T12:05:53.183Z,0.30
2022-11-15T12:08:31.543Z,0.40
2022-11-15T12:11:09.193Z,0.57
2022-11-15T12:13:38.648Z,0.30
2022-11-15T12:16:26.026Z,0.50
2022-11-15T12:18:55.622Z,0.43
2022-11-15T12:21:47.870Z,0.40
2022-11-15T12:24:33.139Z,0.60
2022-11-15T12:27:26.314Z,0.35
2022-11-15T12:29:58.547Z,0.52
2022-11-15T12:32:34.623Z,0.63
2022-11-15T12:35:05.313Z,0.70
2022-11-15T12:37:44.208Z,0.60
2022-11-15T12:40:13.938Z,0.82
2022-11-15T12:42:59.789Z,0.70
2022-11-15T12:45:28.377Z,0.52
2022-11-15T12:47:57.143Z,0.88
2022-11-15T12:50:51.716Z,0.80
2022-11-15T12:53:45.673Z,2.00
2022-11-15T12:56:19.692Z,1.00
2022-11-15T12:59:00.669Z,0.82
2022-11-15T13:01:51.404Z,0.80
2022-11-15T13:04:21.327Z,1.08
2022-11-15T13:06:57.700Z,0.80
2022-11-15T13:09:33.323Z,0.73
2022-11-15T13:12:35.267Z,0.80
2022-11-15T13:15:12.878Z,0.85
2022-11-15T13:17:52.934Z,0.98
2022-11-15T13:20:37.777Z,0.63
2022-11-15T13:23:14.556Z,0.60
2022-11-15T13:28:15.483Z,0.40
2022-11-15T13:31:14.060Z,0.95
2022-11-15T13:33:40.922Z,0.50
2022-11-15T13:36:14.889Z,0.65
2022-11-15T13:38:42.577Z,0.63
2022-11-15T13:41:30.468Z,0.60
2022-11-15T13:43:58.326Z,0.63
2022-11-15T13:50:44.375Z,0.70
2022-11-15T13:53:12.204Z,0.70
2022-11-15T13:55:40.190Z,0.80
2022-11-15T13:58:14.086Z,0.60
2022-11-15T14:00:46.598Z,0.43
2022-11-15T14:03:22.152Z,0.40
2022-11-15T14:06:17.515Z,0.80
2022-11-15T14:11:56.765Z,3.90
2022-11-15T14:14:25.497Z,0.65
2022-11-15T14:17:41.172Z,0.70
2022-11-15T14:20:31.907Z,0.70
2022-11-15T14:23:24.962Z,0.93
2022-11-15T14:25:57.122Z,1.17
2022-11-15T14:28:30.896Z,0.90
2022-11-15T14:31:00.095Z,1.40
2022-11-15T14:33:36.175Z,0.80
2022-11-15T14:36:31.014Z,1.02
2022-11-15T14:39:06.483Z,1.48
2022-11-15T14:41:41.316Z,0.47
2022-11-15T14:44:11.542Z,0.70
2022-11-15T14:46:38.241Z,1.17
2022-11-15T14:49:09.062Z,0.73
2022-11-15T14:51:35.898Z,1.13
2022-11-15T14:54:02.595Z,1.08
2022-11-15T14:56:29.214Z,0.75
2022-11-15T14:58:57.619Z,0.60
2022-11-15T15:01:29.985Z,1.02
2022-11-15T15:03:58.098Z,0.80
2022-11-15T15:06:25.254Z,1.08
2022-11-15T15:08:53.464Z,0.60
2022-11-15T15:11:31.602Z,1.08
2022-11-15T15:14:02.043Z,1.23
2022-11-15T15:16:28.762Z,1.10
2022-11-15T15:18:55.597Z,0.70
2022-11-15T15:21:25.180Z,0.93
2022-11-15T15:23:52.768Z,2.05
2022-11-15T15:26:19.643Z,0.98
2022-11-15T15:28:46.371Z,0.80
2022-11-15T15:31:13.027Z,0.77
2022-11-15T15:33:39.690Z,0.77
2022-11-15T15:36:06.600Z,0.70
2022-11-15T15:38:33.503Z,1.17
2022-11-15T15:41:02.972Z,0.93
2022-11-15T15:43:29.592Z,1.08
2022-11-15T15:45:56.334Z,1.00
2022-11-15T15:48:23.033Z,1.20
2022-11-15T15:50:50.323Z,1.13
2022-11-15T15:53:18.397Z,1.10
2022-11-15T15:55:45.110Z,0.88
2022-11-15T15:58:15.402Z,0.98
2022-11-15T16:00:42.272Z,0.85
2022-11-15T16:03:09.027Z,1.67
2022-11-15T16:05:35.674Z,1.35
2022-11-15T16:08:02.610Z,1.00
2022-11-15T16:10:32.035Z,2.72
2022-11-15T16:12:59.079Z,1.08
2022-11-15T16:15:27.798Z,0.93
2022-11-15T16:17:56.921Z,0.90
2022-11-15T16:20:43.682Z,1.67
2022-11-15T16:23:13.456Z,1.10
2022-11-15T16:25:50.959Z,1.50
2022-11-15T16:28:19.065Z,1.35
2022-11-15T16:30:46.042Z,2.03
2022-11-15T16:33:12.740Z,1.40
2022-11-15T16:35:39.362Z,1.25
2022-11-15T16:38:05.994Z,1.77
2022-11-15T16:40:36.009Z,2.13
2022-11-15T16:43:04.562Z,1.30
2022-11-15T16:45:39.687Z,1.50
2022-11-15T16:48:07.001Z,1.15
2022-11-15T16:50:41.444Z,1.30
2022-11-15T16:53:08.160Z,1.98
2022-11-15T16:55:40.918Z,1.00
2022-11-15T16:58:12.137Z,1.55
2022-11-15T17:00:38.818Z,1.17
2022-11-15T17:03:05.968Z,1.10
2022-11-15T17:05:32.835Z,1.52
2022-11-15T17:07:59.614Z,2.88
2022-11-15T17:10:27.622Z,2.78
2022-11-15T17:12:56.161Z,1.45
2022-11-15T17:15:24.569Z,1.63
2022-11-15T17:17:53.710Z,1.80
2022-11-15T17:20:22.711Z,1.55
2022-11-15T17:22:49.531Z,1.70
2022-11-15T17:25:16.471Z,1.92
2022-11-15T17:27:43.198Z,2.10
2022-11-15T17:30:13.229Z,2.08
2022-11-15T17:32:39.958Z,2.13
2022-11-15T17:35:15.154Z,1.90
2022-11-15T17:37:42.744Z,2.10
2022-11-15T17:40:09.861Z,2.22
2022-11-15T17:42:36.553Z,1.95
2022-11-15T17:45:08.388Z,2.38
2022-11-15T17:47:36.501Z,1.75
2022-11-15T17:50:03.216Z,1.85
2022-11-15T17:52:29.880Z,3.33
2022-11-15T17:54:56.518Z,1.88
2022-11-15T17:57:23.913Z,2.13
2022-11-15T17:59:50.709Z,3.05
2022-11-15T18:02:17.475Z,1.85
2022-11-15T18:04:44.534Z,2.20
2022-11-15T18:07:12.458Z,3.72
2022-11-15T18:09:42.337Z,1.90
2022-11-15T18:12:10.300Z,2.55
2022-11-15T18:14:37.170Z,2.20
2022-11-15T18:17:04.060Z,1.80
2022-11-15T18:19:30.737Z,2.10
2022-11-15T18:21:57.480Z,2.75
2022-11-15T18:24:35.756Z,2.28
2022-11-15T18:27:05.647Z,2.15
2022-11-15T18:29:34.589Z,1.60
2022-11-15T18:32:04.073Z,2.15
2022-11-15T18:34:32.587Z,2.10
2022-11-15T18:37:10.049Z,2.20
2022-11-15T18:39:40.652Z,2.53
2022-11-15T18:42:07.346Z,2.20
2022-11-15T18:44:34.549Z,2.55
2022-11-15T18:47:04.757Z,2.25
2022-11-15T18:49:34.584Z,2.40
2022-11-15T18:52:01.330Z,2.83
2022-11-15T18:54:31.917Z,2.88
2022-11-15T18:56:58.795Z,3.15
2022-11-15T18:59:27.813Z,4.07
2022-11-15T19:01:55.569Z,3.15
2022-11-15T19:04:22.641Z,3.20
2022-11-15T19:06:51.131Z,3.13
2022-11-15T19:09:19.390Z,3.75
2022-11-15T19:11:47.857Z,2.63
2022-11-15T19:14:16.876Z,2.33
2022-11-15T19:16:46.559Z,1.50
2022-11-15T19:19:15.573Z,2.00
2022-11-15T19:21:42.990Z,1.77
2022-11-15T19:24:12.789Z,2.08
2022-11-15T19:26:39.631Z,1.95
2022-11-15T19:29:08.106Z,1.65
2022-11-15T19:31:35.163Z,2.38
2022-11-15T19:34:06.671Z,1.75
2022-11-15T19:36:37.475Z,1.30
2022-11-15T19:39:08.516Z,1.95
2022-11-15T19:41:37.913Z,2.45
2022-11-15T19:44:05.431Z,1.60
2022-11-15T19:46:32.376Z,1.48
2022-11-15T19:48:59.447Z,1.35
2022-11-15T19:51:29.324Z,1.30
2022-11-15T19:53:58.554Z,1.95
2022-11-15T19:56:25.398Z,1.85
2022-11-15T19:58:53.757Z,1.30
2022-11-15T20:01:28.403Z,1.15
2022-11-15T20:03:58.601Z,1.48
2022-11-15T20:06:34.165Z,1.45
2022-11-15T20:09:01.462Z,1.20
2022-11-15T20:11:29.007Z,1.23
2022-11-15T20:14:02.085Z,1.13
2022-11-15T20:16:29.439Z,1.35
2022-11-15T20:18:56.211Z,1.30
2022-11-15T20:21:22.943Z,1.35
2022-11-15T20:23:51.838Z,1.65
2022-11-15T20:26:20.113Z,1.20
2022-11-15T20:28:48.017Z,1.65
2022-11-15T20:31:15.284Z,1.33
2022-11-15T20:33:41.915Z,2.33
2022-11-15T20:36:12.343Z,1.60
2022-11-15T20:38:39.311Z,1.60
2022-11-15T20:41:06.438Z,1.42
2022-11-15T20:43:33.454Z,1.58
2022-11-15T20:46:00.209Z,1.50
2022-11-15T20:48:27.321Z,2.53
2022-11-15T20:51:07.573Z,1.92
2022-11-15T20:53:34.262Z,1.70
2022-11-15T20:56:13.006Z,2.00
2022-11-15T20:58:40.529Z,1.55
2022-11-15T21:01:09.253Z,1.73
2022-11-15T21:03:36.033Z,1.45
2022-11-15T21:06:03.183Z,2.25
2022-11-15T21:08:50.071Z,1.90
2022-11-15T21:11:35.419Z,1.58
2022-11-15T21:14:07.764Z,1.38
2022-11-15T21:16:35.855Z,1.70
2022-11-15T21:19:02.554Z,1.50
2022-11-15T21:21:29.640Z,1.40
2022-11-15T21:23:56.482Z,1.95
2022-11-15T21:26:23.164Z,1.90
2022-11-15T21:28:49.858Z,1.77
2022-11-15T21:31:16.514Z,1.42
2022-11-15T21:33:43.139Z,1.60
2022-11-15T21:36:09.883Z,1.65
2022-11-15T21:38:36.758Z,1.52
2022-11-15T21:41:04.211Z,1.50
2022-11-15T21:43:30.986Z,1.42
2022-11-15T21:46:02.429Z,1.70
2022-11-15T21:48:30.842Z,1.40
2022-11-15T21:51:13.223Z,1.20
2022-11-15T21:53:49.698Z,1.77
2022-11-15T21:56:16.981Z,2.08
2022-11-15T21:58:44.040Z,1.30
2022-11-15T22:01:31.074Z,1.92
2022-11-15T22:06:24.695Z,2.33
2022-11-15T22:08:51.472Z,1.48
2022-11-15T22:11:18.396Z,1.80
2022-11-15T22:13:45.591Z,1.88
2022-11-15T22:16:12.387Z,1.60
2022-11-15T22:18:39.735Z,1.23
2022-11-15T22:21:10.180Z,1.40
2022-11-15T22:23:37.349Z,1.40
2022-11-15T22:26:05.713Z,1.30
2022-11-15T22:28:33.445Z,1.55
2022-11-15T22:31:00.797Z,1.30
2022-11-15T22:33:29.531Z,1.40
2022-11-15T22:35:56.881Z,1.40
2022-11-15T22:38:24.225Z,1.20
2022-11-15T22:40:50.924Z,1.30
2022-11-15T22:43:20.798Z,1.10
2022-11-15T22:45:58.614Z,1.52
2022-11-15T22:48:30.978Z,1.13
2022-11-15T22:50:58.281Z,1.35
2022-11-15T22:53:25.896Z,1.23
2022-11-15T22:55:57.878Z,1.33
2022-11-15T22:58:26.762Z,1.20
2022-11-15T23:00:56.087Z,1.15
2022-11-15T23:03:23.726Z,0.80
2022-11-15T23:05:51.068Z,1.00
2022-11-15T23:08:18.729Z,1.27
2022-11-15T23:11:04.653Z,1.30
2022-11-15T23:13:32.821Z,1.52
2022-11-15T23:16:23.364Z,1.17
2022-11-15T23:18:52.899Z,1.10
2022-11-15T23:21:41.733Z,1.52
2022-11-15T23:24:11.083Z,1.20
2022-11-15T23:26:38.986Z,1.33
2022-11-15T23:32:06.898Z,1.10
2022-11-15T23:34:37.857Z,1.50
2022-11-15T23:37:06.072Z,1.00
2022-11-15T23:39:33.402Z,1.05
2022-11-15T23:42:05.951Z,0.82
2022-11-15T23:44:35.435Z,0.82
2022-11-15T23:47:02.216Z,0.98
2022-11-15T23:49:29.406Z,1.20
2022-11-15T23:51:59.199Z,1.10
2022-11-15T23:54:26.056Z,0.80
2022-11-15T23:57:02.235Z,0.95
2022-11-15T23:59:30.173Z,1.58
